createdAt,value
2017-06-04T00:00:57.950Z,43.37
2017-06-04T00:02:00.371Z,43.47
2017-06-04T00:03:02.775Z,43.37
2017-06-04T00:04:05.183Z,43.47
2017-06-04T00:05:07.591Z,43.37
2017-06-04T00:06:09.999Z,43.47
2017-06-04T00:07:12.418Z,43.47
2017-06-04T00:08:14.822Z,43.37
2017-06-04T00:09:17.227Z,43.47
2017-06-04T00:10:19.637Z,43.47
2017-06-04T00:11:22.043Z,43.47
2017-06-04T00:12:24.452Z,43.47
2017-06-04T00:13:26.857Z,43.47
2017-06-04T00:14:29.268Z,43.47
2017-06-04T00:15:31.689Z,43.47
2017-06-04T00:16:34.098Z,43.47
2017-06-04T00:17:36.505Z,43.47
2017-06-04T00:18:38.921Z,43.47
2017-06-04T00:19:41.328Z,43.47
2017-06-04T00:20:43.740Z,43.47
2017-06-04T00:21:46.145Z,43.47
2017-06-04T00:22:48.566Z,43.47
2017-06-04T00:23:50.973Z,43.57
2017-06-04T00:24:53.383Z,43.57
2017-06-04T00:25:55.793Z,43.47
2017-06-04T00:26:58.198Z,43.57
2017-06-04T00:28:00.617Z,43.57
2017-06-04T00:29:03.032Z,43.57
2017-06-04T00:30:05.448Z,43.57
2017-06-04T00:31:07.857Z,43.57
2017-06-04T00:32:10.273Z,43.57
2017-06-04T00:33:12.680Z,43.57
2017-06-04T00:34:15.085Z,43.57
2017-06-04T00:35:17.494Z,43.57
2017-06-04T00:36:19.900Z,43.57
2017-06-04T00:37:22.308Z,43.57
2017-06-04T00:38:24.718Z,43.57
2017-06-04T00:39:27.134Z,43.57
2017-06-04T00:40:29.545Z,43.57
2017-06-04T00:41:31.969Z,43.54
2017-06-04T00:42:34.381Z,43.57
2017-06-04T00:43:36.789Z,43.66
2017-06-04T00:44:39.199Z,43.64
2017-06-04T00:45:41.608Z,43.57
2017-06-04T00:46:44.014Z,43.54
2017-06-04T00:47:46.420Z,43.66
2017-06-04T00:48:48.829Z,43.66
2017-06-04T00:49:51.234Z,43.57
2017-06-04T00:50:53.652Z,43.66
2017-06-04T00:51:56.062Z,43.66
2017-06-04T00:52:58.469Z,43.64
2017-06-04T00:54:00.890Z,43.66
2017-06-04T00:55:03.300Z,43.66
2017-06-04T00:56:05.706Z,43.66
2017-06-04T00:57:08.113Z,43.66
2017-06-04T00:58:10.519Z,43.66
2017-06-04T00:59:12.925Z,43.64
2017-06-04T01:00:15.339Z,43.66
2017-06-04T01:01:17.746Z,43.64
2017-06-04T01:02:20.147Z,43.64
2017-06-04T01:03:22.559Z,43.74
2017-06-04T01:04:24.974Z,43.64
2017-06-04T01:05:27.370Z,43.64
2017-06-04T01:06:29.792Z,43.64
2017-06-04T01:07:32.201Z,43.64
2017-06-04T01:08:34.609Z,43.64
2017-06-04T01:09:37.016Z,43.74
2017-06-04T01:10:39.425Z,43.64
2017-06-04T01:11:41.837Z,43.64
2017-06-04T01:12:44.247Z,43.64
2017-06-04T01:13:46.654Z,43.74
2017-06-04T01:14:49.065Z,43.64
2017-06-04T01:15:51.471Z,43.74
2017-06-04T01:16:53.876Z,43.74
2017-06-04T01:17:57.217Z,43.74
2017-06-04T01:18:59.625Z,43.74
2017-06-04T01:20:02.034Z,43.74
2017-06-04T01:21:04.445Z,43.74
2017-06-04T01:22:06.854Z,43.74
2017-06-04T01:23:09.261Z,43.74
2017-06-04T01:24:11.670Z,43.74
2017-06-04T01:25:14.081Z,43.74
2017-06-04T01:26:16.495Z,43.74
2017-06-04T01:27:18.905Z,43.74
2017-06-04T01:28:21.309Z,43.74
2017-06-04T01:29:23.727Z,43.74
2017-06-04T01:30:26.128Z,43.84
2017-06-04T01:31:28.537Z,43.84
2017-06-04T01:32:30.966Z,43.74
2017-06-04T01:33:33.375Z,43.84
2017-06-04T01:34:35.786Z,43.84
2017-06-04T01:35:38.193Z,43.84
2017-06-04T01:36:40.609Z,43.84
2017-06-04T01:37:43.024Z,43.84
2017-06-04T01:38:45.432Z,43.84
2017-06-04T01:39:47.846Z,43.84
2017-06-04T01:40:50.252Z,43.84
2017-06-04T01:41:52.659Z,43.84
2017-06-04T01:42:55.071Z,43.84
2017-06-04T01:43:57.478Z,43.84
2017-06-04T01:44:59.888Z,43.84
2017-06-04T01:46:02.303Z,43.84
2017-06-04T01:47:04.715Z,43.74
2017-06-04T01:48:07.123Z,43.84
2017-06-04T01:49:09.533Z,43.84
2017-06-04T01:50:11.940Z,43.84
2017-06-04T01:51:14.346Z,43.84
2017-06-04T01:52:16.759Z,43.84
2017-06-04T01:53:19.171Z,43.84
2017-06-04T01:54:21.581Z,43.84
2017-06-04T01:55:23.987Z,43.84
2017-06-04T01:56:26.401Z,43.84
2017-06-04T01:57:28.819Z,43.93
2017-06-04T01:58:31.230Z,43.93
2017-06-04T01:59:33.640Z,43.93
2017-06-04T02:00:36.044Z,43.93
2017-06-04T02:01:38.452Z,43.84
2017-06-04T02:02:40.860Z,43.84
2017-06-04T02:03:43.275Z,43.84
2017-06-04T02:04:45.684Z,43.84
2017-06-04T02:05:48.090Z,43.84
2017-06-04T02:06:50.500Z,43.84
2017-06-04T02:07:52.921Z,43.84
2017-06-04T02:08:55.329Z,43.84
2017-06-04T02:09:57.736Z,43.84
2017-06-04T02:11:00.145Z,43.93
2017-06-04T02:12:02.552Z,43.84
2017-06-04T02:13:04.970Z,43.84
2017-06-04T02:14:07.374Z,43.84
2017-06-04T02:15:09.783Z,43.84
2017-06-04T02:16:12.144Z,43.84
2017-06-04T02:17:14.553Z,43.84
2017-06-04T02:18:16.962Z,43.93
2017-06-04T02:19:19.370Z,43.93
2017-06-04T02:20:21.773Z,43.84
2017-06-04T02:21:24.182Z,43.93
2017-06-04T02:22:26.591Z,43.93
2017-06-04T02:23:28.996Z,43.93
2017-06-04T02:24:31.407Z,43.93
2017-06-04T02:25:33.812Z,43.93
2017-06-04T02:26:36.223Z,43.93
2017-06-04T02:27:38.628Z,43.93
2017-06-04T02:28:41.034Z,43.93
2017-06-04T02:29:43.440Z,43.93
2017-06-04T02:30:45.847Z,43.93
2017-06-04T02:31:48.257Z,43.93
2017-06-04T02:32:50.667Z,43.93
2017-06-04T02:33:53.079Z,43.93
2017-06-04T02:34:55.487Z,43.93
2017-06-04T02:35:57.891Z,43.93
2017-06-04T02:37:00.300Z,43.93
2017-06-04T02:38:02.704Z,43.93
2017-06-04T02:39:05.124Z,43.93
2017-06-04T02:40:07.528Z,43.93
2017-06-04T02:41:09.933Z,43.93
2017-06-04T02:42:12.338Z,43.93
2017-06-04T02:43:14.743Z,43.93
2017-06-04T02:44:17.152Z,43.93
2017-06-04T02:45:19.580Z,43.93
2017-06-04T02:46:21.987Z,43.93
2017-06-04T02:47:24.393Z,43.93
2017-06-04T02:48:26.799Z,43.93
2017-06-04T02:49:29.217Z,43.93
2017-06-04T02:50:31.623Z,43.93
2017-06-04T02:51:34.027Z,43.93
2017-06-04T02:52:36.431Z,43.93
2017-06-04T02:53:38.837Z,43.93
2017-06-04T02:54:41.248Z,43.93
2017-06-04T02:55:43.651Z,43.93
2017-06-04T02:56:46.060Z,43.93
2017-06-04T02:57:48.470Z,43.93
2017-06-04T02:58:50.878Z,43.93
2017-06-04T02:59:53.291Z,43.93
2017-06-04T03:00:55.701Z,43.93
2017-06-04T03:01:58.106Z,43.93
2017-06-04T03:03:00.514Z,43.93
2017-06-04T03:04:02.926Z,43.93
2017-06-04T03:05:05.338Z,43.93
2017-06-04T03:06:07.754Z,43.93
2017-06-04T03:07:10.157Z,43.93
2017-06-04T03:08:12.566Z,43.93
2017-06-04T03:09:14.976Z,43.93
2017-06-04T03:10:17.395Z,43.93
2017-06-04T03:11:19.794Z,43.93
2017-06-04T03:12:22.207Z,43.93
2017-06-04T03:13:24.614Z,43.93
2017-06-04T03:14:27.021Z,43.93
2017-06-04T03:15:29.427Z,43.93
2017-06-04T03:16:31.874Z,43.93
2017-06-04T03:17:34.248Z,43.93
2017-06-04T03:18:36.653Z,43.93
2017-06-04T03:19:39.072Z,43.93
2017-06-04T03:20:41.481Z,43.93
2017-06-04T03:21:43.886Z,43.93
2017-06-04T03:22:46.297Z,43.93
2017-06-04T03:23:48.701Z,43.84
2017-06-04T03:24:51.128Z,43.93
2017-06-04T03:25:53.538Z,43.93
2017-06-04T03:26:55.966Z,43.93
2017-06-04T03:27:58.374Z,43.84
2017-06-04T03:29:00.778Z,43.93
2017-06-04T03:30:03.190Z,43.84
2017-06-04T03:31:05.618Z,43.84
2017-06-04T03:32:08.025Z,43.84
2017-06-04T03:33:10.431Z,43.84
2017-06-04T03:34:12.837Z,43.84
2017-06-04T03:35:15.241Z,43.84
2017-06-04T03:36:17.647Z,43.84
2017-06-04T03:37:20.062Z,43.84
2017-06-04T03:38:22.468Z,43.84
2017-06-04T03:39:24.876Z,43.84
2017-06-04T03:40:27.286Z,43.84
2017-06-04T03:41:29.700Z,43.93
2017-06-04T03:42:32.109Z,43.93
2017-06-04T03:43:34.474Z,43.84
2017-06-04T03:44:36.882Z,43.84
2017-06-04T03:45:39.291Z,43.84
2017-06-04T03:46:41.698Z,43.84
2017-06-04T03:47:44.104Z,43.84
2017-06-04T03:48:46.527Z,43.84
2017-06-04T03:49:48.938Z,43.84
2017-06-04T03:50:51.346Z,43.74
2017-06-04T03:51:53.770Z,43.74
2017-06-04T03:52:56.799Z,43.74
2017-06-04T03:53:59.203Z,43.74
2017-06-04T03:55:01.611Z,43.74
2017-06-04T03:56:04.021Z,43.74
2017-06-04T03:57:06.429Z,43.74
2017-06-04T03:58:08.835Z,43.74
2017-06-04T03:59:11.248Z,43.74
2017-06-04T04:00:13.650Z,43.74
2017-06-04T04:01:16.062Z,43.74
2017-06-04T04:02:18.467Z,43.64
2017-06-04T04:03:20.875Z,43.64
2017-06-04T04:04:23.287Z,43.74
2017-06-04T04:05:25.694Z,43.74
2017-06-04T04:06:28.106Z,43.74
2017-06-04T04:07:30.512Z,43.74
2017-06-04T04:08:32.923Z,43.74
2017-06-04T04:09:35.335Z,43.74
2017-06-04T04:10:37.746Z,43.74
2017-06-04T04:11:40.149Z,43.64
2017-06-04T04:12:42.556Z,43.74
2017-06-04T04:13:44.964Z,43.74
2017-06-04T04:14:47.368Z,43.64
2017-06-04T04:15:49.777Z,43.74
2017-06-04T04:16:52.179Z,43.74
2017-06-04T04:17:54.592Z,43.74
2017-06-04T04:18:57.004Z,43.74
2017-06-04T04:19:59.409Z,43.84
2017-06-04T04:21:01.817Z,43.74
2017-06-04T04:22:04.223Z,43.74
2017-06-04T04:23:06.631Z,43.74
2017-06-04T04:24:09.076Z,43.74
2017-06-04T04:25:11.454Z,43.84
2017-06-04T04:26:13.858Z,43.74
2017-06-04T04:27:16.271Z,43.84
2017-06-04T04:28:18.682Z,43.74
2017-06-04T04:29:21.087Z,43.84
2017-06-04T04:30:23.512Z,43.84
2017-06-04T04:31:25.915Z,43.74
2017-06-04T04:32:28.321Z,43.84
2017-06-04T04:33:30.723Z,43.84
2017-06-04T04:34:33.143Z,43.84
2017-06-04T04:35:35.551Z,43.84
2017-06-04T04:36:37.952Z,43.84
2017-06-04T04:37:40.354Z,43.84
2017-06-04T04:38:42.768Z,43.84
2017-06-04T04:39:45.173Z,43.84
2017-06-04T04:40:47.580Z,43.74
2017-06-04T04:41:49.987Z,43.74
2017-06-04T04:42:52.392Z,43.74
2017-06-04T04:43:54.798Z,43.84
2017-06-04T04:44:57.219Z,43.84
2017-06-04T04:45:59.628Z,43.74
2017-06-04T04:47:02.039Z,43.74
2017-06-04T04:48:04.445Z,43.74
2017-06-04T04:49:06.857Z,43.74
2017-06-04T04:50:09.264Z,43.74
2017-06-04T04:51:11.678Z,43.74
2017-06-04T04:52:14.087Z,43.64
2017-06-04T04:53:16.492Z,43.64
2017-06-04T04:54:18.899Z,43.74
2017-06-04T04:55:21.316Z,43.64
2017-06-04T04:56:23.720Z,43.64
2017-06-04T04:57:26.126Z,43.64
2017-06-04T04:58:28.535Z,43.64
2017-06-04T04:59:30.937Z,43.64
2017-06-04T05:00:33.342Z,43.54
2017-06-04T05:01:35.755Z,43.54
2017-06-04T05:02:38.162Z,43.54
2017-06-04T05:03:40.572Z,43.54
2017-06-04T05:04:42.977Z,43.45
2017-06-04T05:05:45.397Z,43.45
2017-06-04T05:06:47.801Z,43.45
2017-06-04T05:07:50.204Z,43.47
2017-06-04T05:08:52.614Z,43.27
2017-06-04T05:09:55.022Z,43.37
2017-06-04T05:10:57.445Z,43.37
2017-06-04T05:11:59.857Z,43.37
2017-06-04T05:13:02.264Z,43.27
2017-06-04T05:14:04.665Z,43.37
2017-06-04T05:15:07.077Z,43.47
2017-06-04T05:16:09.502Z,43.37
2017-06-04T05:17:11.905Z,43.35
2017-06-04T05:18:14.310Z,43.37
2017-06-04T05:19:16.723Z,43.37
2017-06-04T05:20:19.129Z,43.47
2017-06-04T05:21:21.537Z,43.37
2017-06-04T05:22:23.955Z,43.27
2017-06-04T05:23:26.361Z,43.37
2017-06-04T05:24:28.768Z,43.37
2017-06-04T05:25:31.178Z,43.37
2017-06-04T05:26:33.595Z,43.37
2017-06-04T05:27:36.001Z,43.37
2017-06-04T05:28:38.437Z,43.37
2017-06-04T05:29:40.817Z,43.27
2017-06-04T05:30:43.222Z,43.27
2017-06-04T05:31:45.633Z,43.27
2017-06-04T05:32:48.045Z,43.27
2017-06-04T05:33:50.447Z,43.27
2017-06-04T05:34:52.856Z,43.27
2017-06-04T05:35:55.262Z,43.18
2017-06-04T05:36:57.673Z,43.18
2017-06-04T05:38:00.078Z,43.08
2017-06-04T05:39:02.487Z,42.99
2017-06-04T05:40:04.898Z,42.99
2017-06-04T05:41:07.310Z,42.99
2017-06-04T05:42:09.713Z,42.99
2017-06-04T05:43:12.133Z,42.89
2017-06-04T05:44:14.546Z,42.89
2017-06-04T05:45:16.950Z,42.89
2017-06-04T05:46:19.358Z,42.89
2017-06-04T05:47:21.771Z,42.89
2017-06-04T05:48:24.180Z,42.99
2017-06-04T05:49:26.588Z,42.99
2017-06-04T05:50:28.993Z,42.99
2017-06-04T05:51:31.398Z,42.99
2017-06-04T05:52:33.810Z,42.99
2017-06-04T05:53:36.224Z,42.89
2017-06-04T05:54:38.644Z,42.99
2017-06-04T05:55:41.043Z,42.89
2017-06-04T05:56:43.450Z,42.89
2017-06-04T05:57:45.866Z,42.89
2017-06-04T05:58:48.275Z,42.89
2017-06-04T05:59:50.683Z,42.89
2017-06-04T06:00:53.092Z,42.89
2017-06-04T06:01:55.504Z,42.79
2017-06-04T06:02:57.908Z,42.89
2017-06-04T06:04:00.333Z,42.89
2017-06-04T06:05:02.744Z,42.89
2017-06-04T06:06:05.150Z,42.79
2017-06-04T06:07:07.558Z,42.69
2017-06-04T06:08:09.966Z,42.69
2017-06-04T06:09:12.378Z,42.69
2017-06-04T06:10:14.790Z,42.60
2017-06-04T06:11:17.190Z,42.60
2017-06-04T06:12:19.599Z,42.60
2017-06-04T06:13:22.009Z,42.60
2017-06-04T06:14:24.412Z,42.60
2017-06-04T06:15:26.829Z,42.60
2017-06-04T06:16:29.235Z,42.60
2017-06-04T06:17:31.645Z,42.60
2017-06-04T06:18:34.053Z,42.60
2017-06-04T06:19:36.462Z,42.60
2017-06-04T06:20:38.869Z,42.61
2017-06-04T06:21:41.279Z,42.52
2017-06-04T06:22:43.686Z,42.52
2017-06-04T06:23:46.090Z,42.43
2017-06-04T06:24:48.499Z,42.43
2017-06-04T06:25:50.901Z,42.52
2017-06-04T06:26:53.313Z,42.43
2017-06-04T06:27:55.724Z,42.43
2017-06-04T06:28:58.144Z,42.23
2017-06-04T06:30:00.548Z,42.23
2017-06-04T06:31:02.959Z,42.13
2017-06-04T06:32:05.369Z,42.13
2017-06-04T06:33:07.780Z,42.03
2017-06-04T06:34:10.186Z,42.03
2017-06-04T06:35:12.602Z,42.03
2017-06-04T06:36:15.014Z,42.03
2017-06-04T06:37:17.423Z,42.03
2017-06-04T06:38:19.839Z,42.03
2017-06-04T06:39:22.258Z,42.13
2017-06-04T06:40:24.667Z,42.13
2017-06-04T06:41:27.074Z,42.13
2017-06-04T06:42:29.491Z,42.03
2017-06-04T06:43:31.898Z,41.94
2017-06-04T06:44:34.309Z,41.84
2017-06-04T06:45:36.721Z,41.74
2017-06-04T06:46:39.145Z,41.64
2017-06-04T06:47:41.559Z,41.64
2017-06-04T06:48:43.961Z,41.57
2017-06-04T06:49:46.374Z,41.67
2017-06-04T06:50:48.789Z,41.57
2017-06-04T06:51:51.196Z,41.57
2017-06-04T06:52:53.606Z,41.57
2017-06-04T06:53:56.012Z,41.57
2017-06-04T06:54:58.419Z,41.57
2017-06-04T06:56:00.837Z,41.57
2017-06-04T06:57:03.245Z,41.67
2017-06-04T06:58:05.651Z,41.67
2017-06-04T06:59:08.065Z,41.74
2017-06-04T07:00:10.466Z,41.94
2017-06-04T07:01:12.883Z,41.94
2017-06-04T07:02:15.287Z,41.74
2017-06-04T07:03:17.695Z,41.67
2017-06-04T07:04:20.101Z,41.67
2017-06-04T07:05:22.510Z,41.67
2017-06-04T07:06:24.920Z,41.57
2017-06-04T07:07:27.349Z,41.47
2017-06-04T07:08:29.759Z,41.38
2017-06-04T07:09:32.170Z,41.38
2017-06-04T07:10:34.592Z,41.38
2017-06-04T07:11:36.997Z,41.28
2017-06-04T07:12:39.406Z,41.18
2017-06-04T07:13:41.813Z,40.99
2017-06-04T07:14:44.224Z,41.08
2017-06-04T07:15:46.633Z,41.01
2017-06-04T07:16:49.042Z,41.10
2017-06-04T07:17:51.450Z,40.91
2017-06-04T07:18:53.870Z,41.01
2017-06-04T07:19:56.279Z,41.10
2017-06-04T07:20:58.686Z,40.81
2017-06-04T07:22:01.097Z,41.01
2017-06-04T07:23:03.501Z,40.81
2017-06-04T07:24:05.910Z,41.01
2017-06-04T07:25:08.320Z,40.81
2017-06-04T07:26:10.724Z,40.81
2017-06-04T07:27:13.138Z,40.91
2017-06-04T07:28:15.557Z,40.91
2017-06-04T07:29:17.964Z,40.91
2017-06-04T07:30:20.371Z,40.62
2017-06-04T07:31:22.781Z,40.62
2017-06-04T07:32:25.196Z,40.72
2017-06-04T07:33:27.609Z,40.81
2017-06-04T07:34:30.018Z,40.81
2017-06-04T07:35:32.425Z,40.81
2017-06-04T07:36:34.835Z,40.91
2017-06-04T07:37:37.246Z,40.91
2017-06-04T07:38:39.648Z,40.91
2017-06-04T07:39:42.063Z,40.81
2017-06-04T07:40:44.474Z,40.62
2017-06-04T07:41:46.882Z,40.42
2017-06-04T07:42:49.297Z,40.33
2017-06-04T07:43:51.707Z,40.52
2017-06-04T07:44:54.122Z,40.42
2017-06-04T07:45:56.527Z,40.23
2017-06-04T07:46:58.938Z,40.06
2017-06-04T07:48:01.346Z,40.06
2017-06-04T07:49:03.757Z,39.76
2017-06-04T07:50:06.167Z,39.57
2017-06-04T07:51:08.579Z,39.57
2017-06-04T07:52:10.994Z,39.37
2017-06-04T07:53:13.396Z,39.37
2017-06-04T07:54:15.808Z,39.28
2017-06-04T07:55:18.219Z,39.20
2017-06-04T07:56:20.627Z,39.10
2017-06-04T07:57:23.035Z,39.20
2017-06-04T07:58:25.445Z,39.00
2017-06-04T07:59:27.858Z,39.10
2017-06-04T08:00:30.270Z,39.00
2017-06-04T08:01:32.676Z,39.00
2017-06-04T08:02:35.084Z,38.91
2017-06-04T08:03:37.493Z,38.91
2017-06-04T08:04:39.903Z,38.81
2017-06-04T08:05:42.312Z,38.91
2017-06-04T08:06:44.723Z,38.81
2017-06-04T08:07:47.131Z,38.81
2017-06-04T08:08:49.542Z,38.81
2017-06-04T08:09:51.947Z,38.71
2017-06-04T08:10:54.358Z,38.62
2017-06-04T08:11:56.768Z,38.71
2017-06-04T08:12:59.171Z,38.62
2017-06-04T08:14:01.599Z,38.52
2017-06-04T08:15:04.008Z,38.52
2017-06-04T08:16:06.418Z,38.32
2017-06-04T08:17:08.825Z,38.44
2017-06-04T08:18:11.231Z,38.34
2017-06-04T08:19:13.638Z,38.24
2017-06-04T08:20:16.047Z,38.24
2017-06-04T08:21:18.459Z,38.24
2017-06-04T08:22:20.867Z,38.15
2017-06-04T08:23:23.276Z,38.05
2017-06-04T08:24:25.692Z,38.05
2017-06-04T08:25:28.097Z,37.95
2017-06-04T08:26:30.508Z,38.05
2017-06-04T08:27:32.917Z,37.95
2017-06-04T08:28:35.329Z,37.76
2017-06-04T08:29:37.740Z,37.76
2017-06-04T08:30:40.156Z,37.66
2017-06-04T08:31:42.578Z,37.66
2017-06-04T08:32:44.987Z,37.66
2017-06-04T08:33:47.399Z,37.76
2017-06-04T08:34:49.814Z,37.56
2017-06-04T08:35:52.226Z,37.66
2017-06-04T08:36:54.639Z,37.56
2017-06-04T08:37:57.047Z,37.58
2017-06-04T08:38:59.465Z,37.48
2017-06-04T08:40:01.870Z,37.39
2017-06-04T08:41:04.285Z,37.48
2017-06-04T08:42:06.696Z,37.39
2017-06-04T08:43:09.102Z,37.39
2017-06-04T08:44:11.516Z,37.39
2017-06-04T08:45:13.933Z,37.39
2017-06-04T08:46:16.345Z,37.39
2017-06-04T08:47:18.749Z,37.29
2017-06-04T08:48:21.155Z,37.29
2017-06-04T08:49:23.572Z,37.19
2017-06-04T08:50:25.981Z,37.10
2017-06-04T08:51:28.394Z,37.19
2017-06-04T08:52:30.814Z,37.19
2017-06-04T08:53:33.219Z,37.10
2017-06-04T08:54:35.628Z,37.10
2017-06-04T08:55:38.047Z,37.10
2017-06-04T08:56:40.457Z,37.00
2017-06-04T08:57:42.873Z,37.10
2017-06-04T08:58:45.277Z,37.10
2017-06-04T08:59:47.683Z,37.10
2017-06-04T09:00:50.092Z,37.10
2017-06-04T09:01:52.509Z,37.00
2017-06-04T09:02:54.922Z,37.00
2017-06-04T09:03:57.329Z,36.90
2017-06-04T09:04:59.749Z,36.82
2017-06-04T09:06:02.160Z,36.72
2017-06-04T09:07:04.569Z,36.63
2017-06-04T09:08:06.977Z,36.43
2017-06-04T09:09:09.387Z,36.43
2017-06-04T09:10:11.798Z,36.33
2017-06-04T09:11:14.208Z,36.43
2017-06-04T09:12:16.622Z,37.66
2017-06-04T09:13:19.035Z,38.52
2017-06-04T09:14:21.444Z,39.08
2017-06-04T09:15:23.855Z,39.47
2017-06-04T09:16:26.273Z,39.67
2017-06-04T09:17:28.679Z,39.86
2017-06-04T09:18:31.086Z,40.03
2017-06-04T09:19:33.510Z,40.23
2017-06-04T09:20:35.919Z,40.33
2017-06-04T09:21:38.328Z,40.33
2017-06-04T09:22:40.735Z,40.42
2017-06-04T09:23:43.151Z,40.52
2017-06-04T09:24:45.556Z,40.62
2017-06-04T09:25:47.966Z,40.62
2017-06-04T09:26:50.386Z,40.62
2017-06-04T09:27:52.800Z,40.81
2017-06-04T09:28:55.215Z,40.81
2017-06-04T09:29:57.625Z,40.91
2017-06-04T09:31:00.032Z,41.01
2017-06-04T09:32:02.443Z,40.99
2017-06-04T09:33:04.862Z,40.99
2017-06-04T09:34:07.270Z,41.08
2017-06-04T09:35:09.688Z,41.18
2017-06-04T09:36:12.087Z,41.28
2017-06-04T09:37:14.508Z,41.18
2017-06-04T09:38:16.918Z,41.18
2017-06-04T09:39:19.325Z,41.28
2017-06-04T09:40:21.736Z,41.28
2017-06-04T09:41:24.140Z,41.28
2017-06-04T09:42:26.551Z,41.28
2017-06-04T09:43:28.959Z,41.28
2017-06-04T09:44:31.364Z,41.28
2017-06-04T09:45:33.786Z,41.28
2017-06-04T09:46:36.192Z,41.28
2017-06-04T09:47:38.612Z,41.38
2017-06-04T09:48:41.020Z,41.38
2017-06-04T09:49:43.426Z,41.38
2017-06-04T09:50:45.835Z,41.38
2017-06-04T09:51:48.235Z,41.38
2017-06-04T09:52:50.643Z,41.47
2017-06-04T09:53:53.050Z,41.47
2017-06-04T09:54:55.466Z,41.38
2017-06-04T09:55:57.879Z,41.47
2017-06-04T09:57:00.284Z,41.38
2017-06-04T09:58:02.694Z,41.38
2017-06-04T09:59:05.102Z,41.38
2017-06-04T10:00:07.507Z,41.38
2017-06-04T10:01:09.923Z,41.38
2017-06-04T10:02:12.330Z,41.28
2017-06-04T10:03:14.739Z,41.38
2017-06-04T10:04:17.146Z,41.47
2017-06-04T10:05:19.565Z,41.47
2017-06-04T10:06:21.976Z,41.47
2017-06-04T10:07:24.384Z,41.47
2017-06-04T10:08:26.796Z,41.47
2017-06-04T10:09:29.204Z,41.57
2017-06-04T10:10:31.612Z,41.57
2017-06-04T10:11:34.047Z,41.67
2017-06-04T10:12:36.452Z,41.67
2017-06-04T10:13:38.861Z,41.67
2017-06-04T10:14:41.263Z,41.57
2017-06-04T10:15:43.669Z,41.47
2017-06-04T10:16:46.088Z,41.47
2017-06-04T10:17:48.497Z,41.57
2017-06-04T10:18:50.903Z,41.67
2017-06-04T10:19:53.317Z,41.67
2017-06-04T10:20:55.722Z,41.47
2017-06-04T10:21:58.130Z,41.47
2017-06-04T10:23:00.536Z,41.38
2017-06-04T10:24:02.947Z,41.47
2017-06-04T10:25:05.358Z,41.57
2017-06-04T10:26:07.775Z,41.57
2017-06-04T10:27:10.183Z,41.47
2017-06-04T10:28:12.592Z,41.57
2017-06-04T10:29:15.008Z,41.57
2017-06-04T10:30:17.416Z,41.57
2017-06-04T10:31:19.825Z,41.57
2017-06-04T10:32:22.235Z,41.67
2017-06-04T10:33:24.647Z,41.67
2017-06-04T10:34:27.060Z,41.67
2017-06-04T10:35:29.469Z,41.57
2017-06-04T10:36:31.893Z,41.47
2017-06-04T10:37:34.311Z,41.47
2017-06-04T10:38:36.722Z,41.47
2017-06-04T10:39:39.127Z,41.57
2017-06-04T10:40:41.540Z,41.47
2017-06-04T10:41:43.943Z,41.47
2017-06-04T10:42:46.354Z,41.47
2017-06-04T10:43:48.756Z,41.47
2017-06-04T10:44:51.166Z,41.38
2017-06-04T10:45:53.574Z,41.38
2017-06-04T10:46:55.988Z,41.47
2017-06-04T10:47:58.391Z,41.47
2017-06-04T10:49:00.801Z,41.38
2017-06-04T10:50:03.217Z,41.47
2017-06-04T10:51:05.626Z,41.57
2017-06-04T10:52:08.039Z,41.57
2017-06-04T10:53:10.455Z,41.38
2017-06-04T10:54:12.863Z,41.38
2017-06-04T10:55:15.269Z,41.47
2017-06-04T10:56:17.680Z,41.47
2017-06-04T10:57:20.090Z,41.57
2017-06-04T10:58:22.500Z,41.67
2017-06-04T10:59:24.908Z,41.67
2017-06-04T11:00:27.315Z,41.47
2017-06-04T11:01:29.738Z,41.57
2017-06-04T11:02:32.150Z,41.67
2017-06-04T11:03:34.591Z,41.57
2017-06-04T11:04:37.003Z,41.67
2017-06-04T11:05:39.412Z,41.67
2017-06-04T11:06:41.829Z,41.67
2017-06-04T11:07:44.232Z,41.77
2017-06-04T11:08:46.645Z,41.67
2017-06-04T11:09:49.053Z,41.67
2017-06-04T11:10:51.460Z,41.64
2017-06-04T11:11:53.867Z,41.74
2017-06-04T11:12:56.275Z,41.74
2017-06-04T11:13:58.681Z,41.74
2017-06-04T11:15:01.094Z,41.84
2017-06-04T11:16:03.500Z,41.84
2017-06-04T11:17:05.908Z,41.84
2017-06-04T11:18:08.325Z,41.84
2017-06-04T11:19:10.737Z,41.77
2017-06-04T11:20:13.135Z,41.64
2017-06-04T11:21:15.545Z,41.84
2017-06-04T11:22:17.960Z,41.74
2017-06-04T11:23:20.368Z,41.67
2017-06-04T11:24:22.778Z,41.77
2017-06-04T11:25:25.188Z,41.77
2017-06-04T11:26:27.599Z,41.67
2017-06-04T11:27:30.006Z,41.57
2017-06-04T11:28:32.417Z,41.57
2017-06-04T11:29:34.837Z,41.47
2017-06-04T11:30:37.240Z,41.57
2017-06-04T11:31:39.651Z,41.67
2017-06-04T11:32:42.068Z,41.74
2017-06-04T11:33:44.476Z,41.74
2017-06-04T11:34:46.883Z,41.84
2017-06-04T11:35:49.290Z,41.84
2017-06-04T11:36:51.702Z,41.84
2017-06-04T11:37:54.108Z,41.94
2017-06-04T11:38:56.530Z,41.74
2017-06-04T11:39:58.943Z,41.67
2017-06-04T11:41:01.353Z,41.57
2017-06-04T11:42:03.762Z,41.57
2017-06-04T11:43:06.177Z,41.64
2017-06-04T11:44:08.580Z,41.67
2017-06-04T11:45:10.994Z,41.57
2017-06-04T11:46:13.395Z,41.67
2017-06-04T11:47:15.804Z,41.57
2017-06-04T11:48:18.215Z,41.57
2017-06-04T11:49:20.624Z,41.57
2017-06-04T11:50:23.039Z,41.47
2017-06-04T11:51:25.448Z,41.57
2017-06-04T11:52:27.852Z,41.47
2017-06-04T11:53:30.265Z,41.57
2017-06-04T11:54:32.670Z,41.47
2017-06-04T11:55:35.127Z,41.67
2017-06-04T11:56:37.533Z,41.57
2017-06-04T11:57:39.950Z,41.47
2017-06-04T11:58:42.357Z,41.57
2017-06-04T11:59:44.766Z,41.38
2017-06-04T12:00:47.177Z,41.38
2017-06-04T12:01:49.584Z,41.38
2017-06-04T12:02:51.993Z,41.47
2017-06-04T12:03:54.399Z,41.38
2017-06-04T12:04:56.810Z,41.47
2017-06-04T12:05:59.216Z,41.38
2017-06-04T12:07:01.622Z,41.38
2017-06-04T12:08:04.032Z,41.38
2017-06-04T12:09:06.444Z,41.28
2017-06-04T12:10:08.859Z,41.38
2017-06-04T12:11:11.267Z,41.47
2017-06-04T12:12:13.673Z,41.38
2017-06-04T12:13:16.077Z,41.38
2017-06-04T12:14:18.493Z,41.18
2017-06-04T12:15:20.905Z,40.99
2017-06-04T12:16:23.315Z,40.99
2017-06-04T12:17:25.725Z,40.99
2017-06-04T12:18:28.133Z,40.99
2017-06-04T12:19:30.543Z,41.08
2017-06-04T12:20:32.954Z,40.99
2017-06-04T12:21:35.365Z,41.08
2017-06-04T12:22:37.772Z,41.18
2017-06-04T12:23:40.179Z,41.28
2017-06-04T12:24:42.591Z,41.38
2017-06-04T12:25:44.999Z,41.38
2017-06-04T12:26:47.409Z,41.47
2017-06-04T12:27:49.817Z,41.38
2017-06-04T12:28:52.224Z,41.28
2017-06-04T12:29:54.627Z,41.08
2017-06-04T12:30:57.043Z,41.18
2017-06-04T12:31:59.454Z,40.89
2017-06-04T12:33:01.870Z,40.99
2017-06-04T12:34:04.273Z,40.89
2017-06-04T12:35:06.680Z,40.99
2017-06-04T12:36:09.089Z,40.99
2017-06-04T12:37:11.495Z,40.99
2017-06-04T12:38:13.902Z,40.99
2017-06-04T12:39:16.306Z,40.99
2017-06-04T12:40:18.718Z,41.08
2017-06-04T12:41:21.127Z,41.18
2017-06-04T12:42:23.568Z,41.28
2017-06-04T12:43:25.968Z,41.38
2017-06-04T12:44:28.376Z,41.38
2017-06-04T12:45:30.842Z,41.47
2017-06-04T12:46:33.256Z,41.57
2017-06-04T12:47:35.663Z,41.57
2017-06-04T12:48:38.070Z,41.57
2017-06-04T12:49:40.482Z,41.55
2017-06-04T12:50:42.889Z,41.64
2017-06-04T12:51:45.298Z,41.64
2017-06-04T12:52:47.716Z,41.67
2017-06-04T12:53:50.128Z,41.55
2017-06-04T12:54:52.535Z,41.64
2017-06-04T12:55:54.947Z,41.64
2017-06-04T12:56:57.360Z,41.64
2017-06-04T12:57:59.774Z,41.64
2017-06-04T12:59:02.181Z,41.64
2017-06-04T13:00:04.585Z,41.64
2017-06-04T13:01:06.993Z,41.64
2017-06-04T13:02:09.396Z,41.64
2017-06-04T13:03:11.810Z,41.55
2017-06-04T13:04:14.217Z,41.64
2017-06-04T13:05:16.626Z,41.64
2017-06-04T13:06:19.039Z,41.64
2017-06-04T13:07:21.447Z,41.64
2017-06-04T13:08:23.855Z,41.64
2017-06-04T13:09:26.260Z,41.64
2017-06-04T13:10:28.664Z,41.64
2017-06-04T13:11:31.072Z,41.64
2017-06-04T13:12:33.483Z,41.74
2017-06-04T13:13:35.898Z,41.74
2017-06-04T13:14:38.312Z,41.74
2017-06-04T13:15:40.726Z,41.74
2017-06-04T13:16:43.141Z,41.74
2017-06-04T13:17:45.547Z,41.74
2017-06-04T13:18:48.013Z,41.74
2017-06-04T13:19:50.417Z,41.74
2017-06-04T13:20:52.822Z,41.84
2017-06-04T13:21:55.233Z,41.74
2017-06-04T13:22:57.641Z,41.64
2017-06-04T13:24:00.067Z,41.47